Time,TemperatureF,DewpointF,PressureIn,WindDirection,WindDirectionDegrees,WindSpeedMPH,WindSpeedGustMPH,Humidity,HourlyPrecipIn,Conditions,Clouds,dailyrainin,SoftwareType,DateUTC
2013-05-01 00:05:00,61.6,58.0,30.15,West,276,0.0,2.0,87,0.00,,,0.00,weatherlink.com 1.10,2013-05-01 04:05:00,
2013-05-01 00:20:00,61.8,57.0,30.16,WNW,284,1.0,5.0,85,0.00,,,0.00,weatherlink.com 1.10,2013-05-01 04:20:00,
2013-05-01 00:35:00,61.7,58.0,30.16,West,280,1.0,1.0,86,0.00,,,0.00,weatherlink.com 1.10,2013-05-01 04:35:00,
2013-05-01 00:50:00,61.5,57.0,30.16,WNW,283,2.0,2.0,85,0.00,,,0.00,weatherlink.com 1.10,2013-05-01 04:50:00,
2013-05-01 01:06:00,60.8,56.0,30.16,NNW,340,0.0,6.0,85,0.00,,,0.00,weatherlink.com 1.10,2013-05-01 05:06:00,
2013-05-01 01:21:00,60.0,56.0,30.16,WNW,293,0.0,2.0,87,0.00,,,0.00,weatherlink.com 1.10,2013-05-01 05:21:00,
2013-05-01 01:36:00,59.2,56.0,30.16,WNW,293,0.0,1.0,89,0.00,,,0.00,weatherlink.com 1.10,2013-05-01 05:36:00,
2013-05-01 01:51:00,58.5,56.0,30.16,West,262,0.0,1.0,90,0.00,,,0.00,weatherlink.com 1.10,2013-05-01 05:51:00,
2013-05-01 02:06:00,58.2,56.0,30.17,West,278,0.0,1.0,91,0.00,,,0.00,weatherlink.com 1.10,2013-05-01 06:06:00,
2013-05-01 02:21:00,58.1,56.0,30.17,West,277,0.0,1.0,92,0.00,,,0.00,weatherlink.com 1.10,2013-05-01 06:21:00,
2013-05-01 02:36:00,58.7,56.0,30.17,West,271,0.0,5.0,89,0.00,,,0.00,weatherlink.com 1.10,2013-05-01 06:36:00,
2013-05-01 02:51:00,58.6,55.0,30.16,West,267,2.0,3.0,89,0.00,,,0.00,weatherlink.com 1.10,2013-05-01 06:51:00,
2013-05-01 03:06:00,58.4,55.0,30.16,West,280,0.0,1.0,89,0.00,,,0.00,weatherlink.com 1.10,2013-05-01 07:06:00,
2013-05-01 03:21:00,58.0,55.0,30.16,West,271,0.0,2.0,89,0.00,,,0.00,weatherlink.com 1.10,2013-05-01 07:21:00,
2013-05-01 03:36:00,57.1,54.0,30.15,West,271,0.0,1.0,90,0.00,,,0.00,weatherlink.com 1.10,2013-05-01 07:36:00,
2013-05-01 03:51:00,56.3,54.0,30.15,WSW,238,0.0,1.0,91,0.00,,,0.00,weatherlink.com 1.10,2013-05-01 07:51:00,
2013-05-01 04:06:00,56.4,54.0,30.15,NNE,12,0.0,5.0,91,0.00,,,0.00,weatherlink.com 1.10,2013-05-01 08:06:00,
2013-05-01 04:21:00,55.8,54.0,30.15,NNE,12,1.0,1.0,92,0.00,,,0.00,weatherlink.com 1.10,2013-05-01 08:21:00,
2013-05-01 04:36:00,55.4,53.0,30.15,SSW,200,0.0,1.0,92,0.00,,,0.00,weatherlink.com 1.10,2013-05-01 08:36:00,
2013-05-01 04:51:00,55.4,53.0,30.15,South,179,0.0,1.0,92,0.00,,,0.00,weatherlink.com 1.10,2013-05-01 08:51:00,
2013-05-01 05:06:00,55.6,53.0,30.15,West,271,0.0,2.0,91,0.00,,,0.00,weatherlink.com 1.10,2013-05-01 09:06:00,
2013-05-01 05:21:00,55.5,53.0,30.15,WSW,239,0.0,1.0,92,0.00,,,0.00,weatherlink.com 1.10,2013-05-01 09:21:00,
2013-05-01 05:36:00,55.4,53.0,30.15,SE,139,0.0,1.0,92,0.00,,,0.00,weatherlink.com 1.10,2013-05-01 09:36:00,
2013-05-01 05:51:00,55.6,53.0,30.16,SE,139,0.0,1.0,92,0.00,,,0.00,weatherlink.com 1.10,2013-05-01 09:51:00,
2013-05-01 06:06:00,56.0,54.0,30.16,WSW,250,1.0,1.0,92,0.00,,,0.00,weatherlink.com 1.10,2013-05-01 10:06:00,
2013-05-01 06:21:00,56.5,54.0,30.17,West,271,0.0,1.0,91,0.00,,,0.00,weatherlink.com 1.10,2013-05-01 10:21:00,
2013-05-01 06:36:00,56.2,54.0,30.17,West,271,0.0,1.0,92,0.00,,,0.00,weatherlink.com 1.10,2013-05-01 10:36:00,
2013-05-01 06:51:00,56.0,54.0,30.18,West,262,1.0,2.0,92,0.00,,,0.00,weatherlink.com 1.10,2013-05-01 10:51:00,
2013-05-01 07:06:00,56.5,54.0,30.17,NNE,13,0.0,3.0,91,0.00,,,0.00,weatherlink.com 1.10,2013-05-01 11:06:00,
2013-05-01 07:21:00,56.5,54.0,30.18,NNE,12,0.0,1.0,91,0.00,,,0.00,weatherlink.com 1.10,2013-05-01 11:21:00,
2013-05-01 07:37:00,56.8,54.0,30.19,West,264,0.0,1.0,91,0.00,,,0.00,weatherlink.com 1.10,2013-05-01 11:37:00,
2013-05-01 07:51:00,57.5,54.0,30.19,NW,311,0.0,4.0,88,0.00,,,0.00,weatherlink.com 1.10,2013-05-01 11:51:00,
2013-05-01 08:06:00,58.1,54.0,30.20,West,277,1.0,4.0,85,0.00,,,0.00,weatherlink.com 1.10,2013-05-01 12:06:00,
2013-05-01 08:21:00,58.5,54.0,30.21,West,263,1.0,8.0,85,0.00,,,0.00,weatherlink.com 1.10,2013-05-01 12:21:00,
2013-05-01 08:36:00,58.8,54.0,30.21,NW,304,2.0,10.0,85,0.00,,,0.00,weatherlink.com 1.10,2013-05-01 12:36:00,
2013-05-01 08:51:00,59.2,54.0,30.21,West,280,2.0,8.0,82,0.00,,,0.00,weatherlink.com 1.10,2013-05-01 12:51:00,
2013-05-01 09:07:00,59.8,54.0,30.21,WSW,246,1.0,4.0,82,0.00,,,0.00,weatherlink.com 1.10,2013-05-01 13:07:00,
2013-05-01 09:21:00,60.8,54.0,30.21,West,281,0.0,6.0,79,0.00,,,0.00,weatherlink.com 1.10,2013-05-01 13:21:00,
2013-05-01 09:36:00,61.7,56.0,30.22,East,97,1.0,6.0,80,0.00,,,0.00,weatherlink.com 1.10,2013-05-01 13:36:00,
2013-05-01 09:51:00,62.4,55.0,30.22,WSW,250,0.0,6.0,76,0.00,,,0.00,weatherlink.com 1.10,2013-05-01 13:51:00,
2013-05-01 10:06:00,62.1,54.0,30.23,NW,310,0.0,7.0,76,0.00,,,0.00,weatherlink.com 1.10,2013-05-01 14:06:00,
2013-05-01 10:21:00,62.1,55.0,30.24,NW,308,1.0,7.0,77,0.00,,,0.00,weatherlink.com 1.10,2013-05-01 14:21:00,
2013-05-01 10:36:00,62.1,54.0,30.23,West,262,0.0,4.0,76,0.00,,,0.00,weatherlink.com 1.10,2013-05-01 14:36:00,
2013-05-01 10:52:00,62.9,55.0,30.23,West,262,1.0,4.0,76,0.00,,,0.00,weatherlink.com 1.10,2013-05-01 14:52:00,
2013-05-01 11:07:00,63.6,56.0,30.23,West,266,3.0,6.0,76,0.00,,,0.00,weatherlink.com 1.10,2013-05-01 15:07:00,
2013-05-01 11:22:00,63.0,55.0,30.24,West,263,0.0,6.0,75,0.00,,,0.00,weatherlink.com 1.10,2013-05-01 15:22:00,
2013-05-01 11:37:00,62.4,54.0,30.25,WNW,297,1.0,4.0,74,0.00,,,0.00,weatherlink.com 1.10,2013-05-01 15:37:00,
2013-05-01 11:52:00,63.4,55.0,30.24,WSW,255,2.0,5.0,75,0.00,,,0.00,weatherlink.com 1.10,2013-05-01 15:52:00,
2013-05-01 12:07:00,65.3,55.0,30.23,SE,142,1.0,7.0,70,0.00,,,0.00,weatherlink.com 1.10,2013-05-01 16:07:00,
2013-05-01 12:22:00,64.9,56.0,30.21,NNW,340,0.0,10.0,72,0.00,,,0.00,weatherlink.com 1.10,2013-05-01 16:22:00,
2013-05-01 12:37:00,64.9,57.0,30.21,NW,326,2.0,5.0,75,0.00,,,0.00,weatherlink.com 1.10,2013-05-01 16:37:00,
2013-05-01 12:52:00,65.0,55.0,30.21,WNW,283,1.0,5.0,71,0.00,,,0.00,weatherlink.com 1.10,2013-05-01 16:52:00,
2013-05-01 13:07:00,65.1,56.0,30.20,West,264,0.0,6.0,72,0.00,,,0.00,weatherlink.com 1.10,2013-05-01 17:07:00,
2013-05-01 13:22:00,65.1,56.0,30.21,WNW,295,0.0,4.0,72,0.00,,,0.00,weatherlink.com 1.10,2013-05-01 17:22:00,
2013-05-01 13:37:00,64.7,56.0,30.21,NW,308,1.0,6.0,74,0.00,,,0.00,weatherlink.com 1.10,2013-05-01 17:37:00,
2013-05-01 13:52:00,64.4,57.0,30.21,WSW,249,1.0,4.0,76,0.00,,,0.00,weatherlink.com 1.10,2013-05-01 17:52:00,
2013-05-01 14:07:00,64.3,57.0,30.22,WNW,291,0.0,3.0,77,0.00,,,0.00,weatherlink.com 1.10,2013-05-01 18:07:00,
2013-05-01 14:22:00,65.0,57.0,30.22,West,273,0.0,6.0,74,0.00,,,0.00,weatherlink.com 1.10,2013-05-01 18:22:00,
2013-05-01 14:37:00,66.0,57.0,30.21,NNW,337,3.0,6.0,72,0.00,,,0.00,weatherlink.com 1.10,2013-05-01 18:37:00,
2013-05-01 14:52:00,65.9,56.0,30.21,WSW,257,0.0,3.0,71,0.00,,,0.00,weatherlink.com 1.10,2013-05-01 18:52:00,
2013-05-01 15:07:00,66.6,58.0,30.20,WNW,287,0.0,6.0,73,0.00,,,0.00,weatherlink.com 1.10,2013-05-01 19:07:00,
2013-05-01 15:22:00,67.2,58.0,30.20,SW,229,1.0,3.0,72,0.00,,,0.00,weatherlink.com 1.10,2013-05-01 19:22:00,
2013-05-01 15:37:00,67.1,57.0,30.20,West,278,1.0,5.0,70,0.00,,,0.00,weatherlink.com 1.10,2013-05-01 19:37:00,
2013-05-01 15:52:00,67.0,58.0,30.19,West,270,3.0,8.0,72,0.00,,,0.00,weatherlink.com 1.10,2013-05-01 19:52:00,
2013-05-01 16:07:00,66.8,56.0,30.19,WNW,291,3.0,5.0,69,0.00,,,0.00,weatherlink.com 1.10,2013-05-01 20:07:00,
2013-05-01 16:22:00,66.1,56.0,30.19,West,267,0.0,6.0,70,0.00,,,0.00,weatherlink.com 1.10,2013-05-01 20:22:00,
2013-05-01 16:37:00,66.3,56.0,30.19,NW,308,1.0,8.0,69,0.00,,,0.00,weatherlink.com 1.10,2013-05-01 20:37:00,
2013-05-01 16:52:00,66.0,56.0,30.19,West,267,2.0,5.0,71,0.00,,,0.00,weatherlink.com 1.10,2013-05-01 20:52:00,
2013-05-01 17:07:00,65.6,56.0,30.19,West,273,0.0,7.0,71,0.00,,,0.00,weatherlink.com 1.10,2013-05-01 21:07:00,
2013-05-01 17:22:00,65.4,56.0,30.19,NE,34,0.0,8.0,72,0.00,,,0.00,weatherlink.com 1.10,2013-05-01 21:22:00,
2013-05-01 17:37:00,65.4,55.0,30.19,WNW,285,0.0,4.0,70,0.00,,,0.00,weatherlink.com 1.10,2013-05-01 21:37:00,
2013-05-01 17:52:00,65.2,56.0,30.20,North,11,2.0,3.0,73,0.00,,,0.00,weatherlink.com 1.10,2013-05-01 21:52:00,
2013-05-01 18:07:00,65.4,58.0,30.19,WNW,282,0.0,2.0,77,0.00,,,0.00,weatherlink.com 1.10,2013-05-01 22:07:00,
2013-05-01 18:22:00,64.8,56.0,30.19,WNW,297,0.0,2.0,73,0.00,,,0.00,weatherlink.com 1.10,2013-05-01 22:22:00,
2013-05-01 18:37:00,64.5,57.0,30.19,NW,308,1.0,3.0,76,0.00,,,0.00,weatherlink.com 1.10,2013-05-01 22:37:00,
2013-05-01 18:52:00,64.0,56.0,30.18,WNW,290,0.0,9.0,76,0.00,,,0.00,weatherlink.com 1.10,2013-05-01 22:52:00,
2013-05-01 19:07:00,63.7,57.0,30.19,West,278,0.0,1.0,79,0.00,,,0.00,weatherlink.com 1.10,2013-05-01 23:07:00,
2013-05-01 19:22:00,63.2,57.0,30.19,NW,325,2.0,7.0,79,0.00,,,0.00,weatherlink.com 1.10,2013-05-01 23:22:00,
2013-05-01 19:37:00,62.9,56.0,30.19,NW,307,1.0,7.0,79,0.00,,,0.00,weatherlink.com 1.10,2013-05-01 23:37:00,
2013-05-01 19:52:00,62.3,56.0,30.19,NNW,345,2.0,4.0,79,0.00,,,0.00,weatherlink.com 1.10,2013-05-01 23:52:00,
2013-05-01 20:07:00,61.9,56.0,30.19,SSW,198,0.0,7.0,82,0.00,,,0.00,weatherlink.com 1.10,2013-05-02 00:07:00,
2013-05-01 20:22:00,61.4,56.0,30.19,WNW,297,0.0,5.0,82,0.00,,,0.00,weatherlink.com 1.10,2013-05-02 00:22:00,
2013-05-01 20:37:00,61.2,56.0,30.20,WNW,284,0.0,3.0,83,0.00,,,0.00,weatherlink.com 1.10,2013-05-02 00:37:00,
2013-05-01 20:52:00,61.1,56.0,30.21,West,269,1.0,4.0,83,0.00,,,0.00,weatherlink.com 1.10,2013-05-02 00:52:00,
2013-05-01 21:07:00,61.0,56.0,30.21,SSW,211,0.0,3.0,83,0.00,,,0.00,weatherlink.com 1.10,2013-05-02 01:07:00,
2013-05-01 21:22:00,61.1,56.0,30.22,WSW,238,0.0,5.0,83,0.00,,,0.00,weatherlink.com 1.10,2013-05-02 01:22:00,
2013-05-01 21:37:00,60.9,56.0,30.23,West,260,1.0,3.0,83,0.00,,,0.00,weatherlink.com 1.10,2013-05-02 01:37:00,
2013-05-01 21:52:00,60.8,56.0,30.23,West,264,0.0,8.0,84,0.00,,,0.00,weatherlink.com 1.10,2013-05-02 01:52:00,
2013-05-01 22:07:00,60.6,56.0,30.24,WSW,245,2.0,9.0,84,0.00,,,0.00,weatherlink.com 1.10,2013-05-02 02:07:00,
2013-05-01 22:22:00,60.5,56.0,30.24,WNW,283,0.0,5.0,85,0.00,,,0.00,weatherlink.com 1.10,2013-05-02 02:22:00,
2013-05-01 22:37:00,60.3,56.0,30.25,WSW,250,0.0,1.0,86,0.00,,,0.00,weatherlink.com 1.10,2013-05-02 02:37:00,
2013-05-01 22:52:00,60.1,56.0,30.24,West,278,1.0,5.0,86,0.00,,,0.00,weatherlink.com 1.10,2013-05-02 02:52:00,
2013-05-01 23:07:00,60.0,56.0,30.24,WNW,287,1.0,4.0,87,0.00,,,0.00,weatherlink.com 1.10,2013-05-02 03:07:00,
2013-05-01 23:22:00,59.7,56.0,30.24,WSW,256,1.0,6.0,88,0.00,,,0.00,weatherlink.com 1.10,2013-05-02 03:22:00,
2013-05-01 23:37:00,59.6,56.0,30.24,NW,323,0.0,6.0,88,0.00,,,0.00,weatherlink.com 1.10,2013-05-02 03:37:00,
2013-05-01 23:52:00,59.6,56.0,30.24,North,11,1.0,4.0,87,0.00,,,0.00,weatherlink.com 1.10,2013-05-02 03:52:00,